Time;durP1;ratioP1;P1;durP2;ratioP2;P2;SDS_P1;SDS_P2;PMS_P1;PMS_P2;Temp;Humidity;BMP_temperature;BMP_pressure;BME280_temperature;BME280_humidity;BME280_pressure;Samples;Min_cycle;Max_cycle;Signal;HPM_P1;HPM_P2
2021/04/14 00:04:57;;;;;;;4.13;2.13;;;1.80;99.90;;;-0.14;100.00;101511.94;4874111;28;78274;-59
2021/04/14 00:08:19;;;;;;;3.70;2.10;;;1.70;99.90;;;-0.07;100.00;101506.34;4860281;28;90368;-59
2021/04/14 00:11:38;;;;;;;5.63;1.97;;;1.60;99.90;;;-0.16;100.00;101501.47;4860792;28;89517;-57
2021/04/14 00:14:50;;;;;;;2.67;2.00;;;1.60;99.90;;;-0.18;100.00;101507.69;4872965;28;88651;-58
2021/04/14 00:18:01;;;;;;;3.00;1.90;;;1.50;99.90;;;-0.25;100.00;101501.84;4924860;28;80240;-58
2021/04/14 00:21:14;;;;;;;4.90;2.30;;;1.50;99.90;;;-0.33;100.00;101503.03;4925373;28;83467;-59
2021/04/14 00:24:27;;;;;;;3.70;1.93;;;1.40;99.90;;;-0.37;100.00;101499.66;4940523;28;76684;-58
2021/04/14 00:27:39;;;;;;;5.33;2.50;;;1.40;99.90;;;-0.49;100.00;101495.72;4937533;28;81207;-58
2021/04/14 00:30:50;;;;;;;4.20;1.93;;;1.30;99.90;;;-0.57;100.00;101500.44;4945494;28;74813;-58
2021/04/14 00:34:02;;;;;;;5.43;2.40;;;1.30;99.90;;;-0.58;100.00;101501.34;4941695;28;78035;-59
2021/04/14 00:37:15;;;;;;;2.93;1.80;;;1.20;99.90;;;-0.55;100.00;101500.38;4933163;28;84239;-58
2021/04/14 00:40:53;;;;;;;4.07;2.23;;;1.20;99.90;;;-0.55;100.00;101501.22;4933067;28;87912;-58
2021/04/14 00:44:16;;;;;;;3.40;1.83;;;1.20;99.90;;;-0.63;100.00;101494.56;4872310;28;84518;-59
2021/04/14 00:47:28;;;;;;;4.03;2.23;;;1.10;99.90;;;-0.59;100.00;101493.50;4884894;28;86940;-59
2021/04/14 00:50:42;;;;;;;6.97;2.80;;;1.10;99.90;;;-0.64;100.00;101496.34;4937690;28;94421;-57
2021/04/14 00:53:55;;;;;;;3.87;2.20;;;1.10;99.90;;;-0.73;100.00;101496.66;4970775;28;69146;-58
2021/04/14 00:57:06;;;;;;;4.63;2.37;;;1.00;99.90;;;-0.70;100.00;101498.31;4935505;28;92719;-59
2021/04/14 01:00:18;;;;;;;4.93;2.10;;;1.00;99.90;;;-0.69;100.00;101498.25;4933163;28;87544;-58
2021/04/14 01:03:33;;;;;;;4.47;2.73;;;1.00;99.90;;;-0.79;100.00;101502.16;4917551;28;90323;-60
2021/04/14 01:06:46;;;;;;;4.60;2.17;;;1.00;99.90;;;-0.85;100.00;101497.97;4926064;28;89773;-58
2021/04/14 01:09:58;;;;;;;5.30;2.37;;;0.90;99.90;;;-0.88;100.00;101503.34;4936769;28;97641;-59
2021/04/14 01:13:10;;;;;;;3.33;2.20;;;0.90;99.90;;;-0.84;100.00;101509.34;4941088;28;81164;-59
2021/04/14 01:16:27;;;;;;;4.93;2.60;;;0.90;99.90;;;-0.83;100.00;101501.41;4930859;28;87175;-58
2021/04/14 01:23:53;;;;;;;5.57;2.23;;;0.90;99.90;;;-0.83;100.00;101500.53;4908360;28;78549;-59
2021/04/14 01:27:05;;;;;;;4.27;2.30;;;0.90;99.90;;;-0.76;100.00;101504.69;4929859;28;67852;-59
2021/04/14 01:30:16;;;;;;;3.97;2.20;;;0.80;99.90;;;-0.84;100.00;101504.06;4926751;28;85051;-59
2021/04/14 01:33:29;;;;;;;3.70;2.10;;;0.90;99.90;;;-0.87;100.00;101509.47;4929226;28;92374;-59
2021/04/14 01:36:40;;;;;;;3.17;1.87;;;0.80;99.90;;;-0.89;100.00;101506.03;4929017;28;92362;-57
2021/04/14 01:39:52;;;;;;;2.37;1.93;;;0.80;99.90;;;-0.87;100.00;101510.34;4943360;28;79014;-59
2021/04/14 01:43:16;;;;;;;2.30;1.97;;;0.80;99.90;;;-0.89;100.00;101511.28;4942844;28;80168;-59
2021/04/14 01:49:54;;;;;;;5.27;1.90;;;0.80;99.90;;;-1.00;100.00;101510.81;4940564;28;66902;-60
2021/04/14 01:53:15;;;;;;;8.07;2.40;;;0.70;99.90;;;-0.99;100.00;101508.13;4948358;28;73318;-59
2021/04/14 01:56:41;;;;;;;2.73;1.70;;;0.70;99.90;;;-1.07;100.00;101510.16;4945732;28;75520;-58
2021/04/14 02:00:07;;;;;;;7.90;2.30;;;0.70;99.90;;;-1.13;100.00;101513.88;4930162;28;91078;-59
2021/04/14 02:03:19;;;;;;;4.80;2.07;;;0.70;99.90;;;-1.11;100.00;101513.81;4933748;28;84683;-59
2021/04/14 02:06:32;;;;;;;6.90;2.30;;;0.60;99.90;;;-1.12;100.00;101510.34;4942765;28;75759;-59
2021/04/14 02:09:43;;;;;;;5.73;2.37;;;0.60;99.90;;;-1.18;100.00;101501.81;4948803;28;72891;-59
2021/04/14 02:12:56;;;;;;;6.33;2.20;;;0.50;99.90;;;-1.18;100.00;101504.44;4947253;28;69919;-58
2021/04/14 02:16:08;;;;;;;6.10;2.40;;;0.50;99.90;;;-1.18;100.00;101504.44;4942222;28;78011;-58
2021/04/14 02:19:25;;;;;;;7.33;2.00;;;0.50;99.90;;;-1.24;100.00;101500.28;4943728;28;73282;-59
2021/04/14 02:22:36;;;;;;;3.20;2.43;;;0.50;99.90;;;-1.20;100.00;101498.38;4931243;28;99496;-57
2021/04/14 02:25:48;;;;;;;4.10;2.00;;;0.40;99.90;;;-1.19;100.00;101497.47;4935789;28;91363;-58
2021/04/14 02:29:01;;;;;;;6.03;2.30;;;0.40;99.90;;;-1.22;100.00;101492.31;4929624;28;83835;-59
2021/04/14 02:32:12;;;;;;;3.67;2.40;;;0.40;99.90;;;-1.23;100.00;101498.47;4934007;28;97828;-60
2021/04/14 02:35:24;;;;;;;4.50;2.57;;;0.40;99.90;;;-1.27;100.00;101503.00;4938482;28;88376;-59
2021/04/14 02:38:36;;;;;;;7.57;2.43;;;0.30;99.90;;;-1.29;100.00;101496.09;4949534;28;76493;-57
2021/04/14 02:41:59;;;;;;;6.57;2.63;;;0.30;99.90;;;-1.34;100.00;101496.22;4948050;28;70619;-57
2021/04/14 02:45:12;;;;;;;5.23;2.63;;;0.30;99.90;;;-1.28;100.00;101500.44;4953645;28;70603;-59
2021/04/14 02:48:25;;;;;;;5.63;2.20;;;0.30;99.90;;;-1.33;100.00;101494.47;4949864;28;74932;-59
2021/04/14 02:51:38;;;;;;;7.40;2.93;;;0.30;99.90;;;-1.39;100.00;101500.81;4949368;28;75807;-58
2021/04/14 02:54:49;;;;;;;4.40;2.20;;;0.20;99.90;;;-1.38;100.00;101502.53;4948480;28;70107;-58
2021/04/14 02:58:00;;;;;;;3.33;2.17;;;0.20;99.90;;;-1.57;100.00;101497.03;4947929;28;75163;-59
2021/04/14 03:01:12;;;;;;;4.53;2.40;;;0.20;99.90;;;-1.66;100.00;101505.22;4954103;28;66682;-58
2021/04/14 03:04:24;;;;;;;3.50;2.40;;;0.20;99.90;;;-1.77;100.00;101507.34;4950029;28;77005;-59
2021/04/14 03:07:35;;;;;;;3.57;2.10;;;0.20;99.90;;;-1.83;100.00;101502.28;4953140;28;65893;-58
2021/04/14 03:10:47;;;;;;;4.07;2.00;;;0.10;99.90;;;-1.84;100.00;101508.44;4953126;28;72489;-57
2021/04/14 03:17:27;;;;;;;4.10;2.87;;;0.10;99.90;;;-2.00;100.00;101507.22;4943994;28;78337;-56
2021/04/14 03:20:43;;;;;;;4.20;2.20;;;0.00;99.90;;;-1.99;100.00;101512.44;4942511;28;79697;-60
2021/04/14 03:23:54;;;;;;;7.20;2.73;;;0.00;99.90;;;-2.10;100.00;101509.25;4948556;28;74973;-59
2021/04/14 03:27:05;;;;;;;5.93;2.57;;;0.00;99.90;;;-2.14;100.00;101501.56;4952616;28;65767;-58
2021/04/14 03:30:23;;;;;;;6.40;2.60;;;-0.20;99.90;;;-2.23;100.00;101505.34;4944343;28;83178;-57
2021/04/14 03:37:03;;;;;;;6.40;2.53;;;-0.30;99.90;;;-2.21;100.00;101511.38;4938210;28;76817;-59
2021/04/14 03:40:15;;;;;;;5.50;2.57;;;-0.30;99.90;;;-2.29;100.00;101516.00;4943207;28;76472;-58
2021/04/14 03:43:26;;;;;;;5.87;3.00;;;-0.40;99.90;;;-2.38;100.00;101509.28;4922780;28;71696;-58
2021/04/14 03:46:44;;;;;;;4.03;2.37;;;-0.40;99.90;;;-2.29;100.00;101516.00;4951364;28;85620;-59
2021/04/14 03:49:56;;;;;;;4.60;2.50;;;-0.50;99.90;;;-2.41;100.00;101517.22;4956593;28;70356;-58
2021/04/14 03:53:14;;;;;;;4.17;2.97;;;-0.50;99.90;;;-2.39;100.00;101519.81;4961022;28;66490;-58
2021/04/14 03:56:28;;;;;;;10.13;3.53;;;-0.60;99.90;;;-2.28;100.00;101515.09;4952156;28;71655;-59
2021/04/14 03:59:39;;;;;;;72.80;9.67;;;-0.60;99.90;;;-2.07;100.00;101519.66;4953085;28;67554;-59
2021/04/14 04:02:50;;;;;;;288.70;32.03;;;-0.60;99.90;;;-2.28;100.00;101515.09;4954517;28;70945;-59
2021/04/14 04:06:14;;;;;;;6.20;2.67;;;-0.70;99.90;;;-2.28;100.00;101517.72;4955611;28;62026;-58
2021/04/14 04:09:26;;;;;;;318.87;37.67;;;-0.70;99.90;;;-2.28;100.00;101523.81;4941641;28;61798;-58
2021/04/14 04:12:39;;;;;;;1060.87;127.67;;;-0.60;99.90;;;-2.06;100.00;101529.25;4962041;28;57951;-56
2021/04/14 04:15:50;;;;;;;314.13;34.40;;;-0.70;99.90;;;-2.25;100.00;101526.34;4952938;28;69513;-57
2021/04/14 04:19:01;;;;;;;8.10;3.10;;;-0.70;99.90;;;-2.34;100.00;101534.47;4952035;28;63734;-60
2021/04/14 04:22:13;;;;;;;4.47;2.33;;;-0.60;99.90;;;-2.18;100.00;101537.50;4949697;28;66864;-57
2021/04/14 04:25:25;;;;;;;23.93;4.80;;;-0.60;99.90;;;-2.21;100.00;101534.97;4953204;28;70044;-58
2021/04/14 04:28:37;;;;;;;3.53;2.50;;;-0.60;99.90;;;-2.19;100.00;101534.00;4953982;28;61376;-58
2021/04/14 04:31:48;;;;;;;8.57;2.93;;;-0.60;99.90;;;-2.23;100.00;101535.03;4956266;28;62087;-59
2021/04/14 04:34:59;;;;;;;6.00;2.43;;;-0.60;99.90;;;-2.32;100.00;101542.28;4961991;28;59084;-59
2021/04/14 04:38:11;;;;;;;6.00;2.33;;;-0.60;99.90;;;-2.28;100.00;101542.16;4963047;28;54446;-59
2021/04/14 04:41:43;;;;;;;34.17;4.60;;;-0.60;99.90;;;-2.10;100.00;101538.09;4962810;28;52978;-58
2021/04/14 04:48:52;;;;;;;9.83;3.07;;;-0.60;99.90;;;-2.01;100.00;101540.47;4961629;28;58208;-59
2021/04/14 04:52:03;;;;;;;15.20;3.13;;;-0.50;99.90;;;-1.94;100.00;101541.97;4962867;28;62733;-59
2021/04/14 04:55:15;;;;;;;4.77;2.37;;;-0.50;99.90;;;-1.91;100.00;101544.50;4963708;28;55008;-59
2021/04/14 04:58:27;;;;;;;6.70;3.20;;;-0.40;99.90;;;-1.78;100.00;101544.13;4965560;28;54749;-59
2021/04/14 05:01:38;;;;;;;6.63;3.37;;;-0.30;99.90;;;-1.71;100.00;101546.47;4959123;28;60146;-59
2021/04/14 05:04:50;;;;;;;10.00;3.13;;;-0.30;99.90;;;-1.67;100.00;101542.00;4962523;28;58923;-59
2021/04/14 05:08:01;;;;;;;8.07;2.77;;;-0.20;99.90;;;-1.60;100.00;101539.13;4952832;28;65707;-59
2021/04/14 05:11:14;;;;;;;7.90;2.77;;;-0.10;99.90;;;-1.55;100.00;101546.84;4955801;28;62997;-58
2021/04/14 05:14:25;;;;;;;9.33;3.23;;;0.00;99.90;;;-1.38;100.00;101548.91;4960960;28;56591;-58
2021/04/14 05:17:48;;;;;;;11.00;3.50;;;0.10;99.90;;;-1.40;100.00;101550.72;4959033;28;56219;-59
2021/04/14 05:21:00;;;;;;;8.40;3.50;;;0.10;99.90;;;-1.36;100.00;101550.56;4960168;28;57677;-59
2021/04/14 05:24:11;;;;;;;9.87;3.70;;;0.20;99.90;;;-1.31;100.00;101551.28;4956394;28;60257;-59
2021/04/14 05:27:24;;;;;;;7.17;3.53;;;0.30;99.90;;;-1.22;100.00;101557.97;4959260;28;53079;-59
2021/04/14 05:30:36;;;;;;;12.90;3.93;;;0.40;99.90;;;-1.05;100.00;101560.88;4954096;28;62010;-57
2021/04/14 05:33:48;;;;;;;6.50;2.73;;;0.50;99.90;;;-1.08;100.00;101559.22;4951542;28;64432;-59
2021/04/14 05:37:00;;;;;;;5.27;3.10;;;0.50;99.90;;;-1.10;100.00;101563.66;4952606;28;61457;-57
2021/04/14 05:40:12;;;;;;;8.33;4.43;;;0.60;99.90;;;-1.01;100.00;101562.50;4948972;28;71102;-57
2021/04/14 05:43:33;;;;;;;6.03;3.60;;;0.70;99.90;;;-0.95;100.00;101567.53;4952462;28;65633;-57
2021/04/14 05:46:45;;;;;;;9.03;4.00;;;0.80;99.90;;;-0.89;100.00;101562.06;4955050;28;65016;-59
2021/04/14 05:49:56;;;;;;;5.27;3.00;;;0.90;99.90;;;-0.74;100.00;101569.38;4951705;28;68049;-57
2021/04/14 05:53:07;;;;;;;8.00;3.10;;;1.10;99.90;;;-0.80;100.00;101566.13;4950509;28;66858;-58
2021/04/14 05:56:19;;;;;;;6.77;3.40;;;1.20;99.90;;;-0.68;100.00;101570.09;4937295;28;60986;-58
2021/04/14 05:59:31;;;;;;;10.27;3.30;;;1.20;99.90;;;-0.57;100.00;101571.41;4931766;28;67597;-59
2021/04/14 06:02:42;;;;;;;6.90;3.07;;;1.30;99.90;;;-0.56;100.00;101570.50;4929782;28;74932;-58
2021/04/14 06:05:54;;;;;;;7.00;3.30;;;1.40;99.90;;;-0.40;100.00;101569.03;4945215;28;63617;-57
2021/04/14 06:09:05;;;;;;;11.70;4.13;;;1.50;99.90;;;-0.59;100.00;101567.13;4949905;28;64672;-58
2021/04/14 06:12:16;;;;;;;9.03;3.30;;;1.60;99.90;;;-0.33;100.00;101564.38;4951672;28;64504;-58
2021/04/14 06:15:30;;;;;;;10.83;4.10;;;1.60;99.90;;;0.06;100.00;101563.75;4958080;28;57986;-59
2021/04/14 06:18:41;;;;;;;6.73;3.03;;;1.80;99.90;;;0.29;100.00;101561.94;4959308;28;60442;-59
2021/04/14 06:21:53;;;;;;;6.93;3.70;;;1.90;99.90;;;-0.03;100.00;101567.63;4958263;28;62816;-58
2021/04/14 06:25:04;;;;;;;7.93;3.40;;;2.10;99.90;;;0.08;100.00;101562.78;4957192;28;59913;-59
2021/04/14 06:28:16;;;;;;;6.57;3.57;;;2.30;99.90;;;0.29;100.00;101567.19;4959763;28;64650;-60
2021/04/14 06:31:29;;;;;;;9.23;4.13;;;2.50;99.90;;;0.83;100.00;101557.09;4962104;28;60174;-58
2021/04/14 06:35:07;;;;;;;7.40;3.30;;;2.60;99.90;;;0.73;100.00;101556.63;4942303;28;69333;-60
2021/04/14 06:38:21;;;;;;;11.47;3.27;;;2.90;99.90;;;1.01;100.00;101557.13;4890304;28;54855;-57
2021/04/14 06:45:29;;;;;;;9.37;3.30;;;3.40;99.90;;;1.08;100.00;101558.59;4962590;28;50671;-60
2021/04/14 06:48:54;;;;;;;6.73;3.40;;;3.70;99.90;;;1.53;100.00;101557.47;4958661;28;62244;-60
2021/04/14 06:52:11;;;;;;;10.00;3.27;;;4.10;99.90;;;1.87;100.00;101550.63;4944728;28;59092;-59
2021/04/14 06:55:27;;;;;;;8.07;3.57;;;4.40;99.90;;;2.17;100.00;101552.69;4963788;28;51699;-60
2021/04/14 06:59:09;;;;;;;7.37;3.23;;;4.70;99.90;;;2.24;100.00;101561.13;4960760;28;57256;-60
2021/04/14 07:02:26;;;;;;;5.87;3.00;;;5.00;99.90;;;2.12;100.00;101549.38;4898803;28;62733;-60
2021/04/14 07:05:43;;;;;;;7.87;2.90;;;5.40;99.90;;;1.90;100.00;101553.97;4956739;28;53054;-59
2021/04/14 07:09:00;;;;;;;11.33;3.77;;;5.50;99.90;;;2.19;100.00;101554.38;4960349;28;58067;-60
2021/04/14 07:12:27;;;;;;;9.67;3.17;;;5.60;99.90;;;2.56;100.00;101550.81;4961705;28;62840;-59
2021/04/14 07:15:38;;;;;;;8.27;2.93;;;5.80;99.90;;;2.52;100.00;101548.31;4963074;28;51280;-60
2021/04/14 07:19:04;;;;;;;9.90;3.50;;;6.00;99.90;;;2.20;100.00;101554.31;4957104;28;63228;-60
2021/04/14 07:26:02;;;;;;;10.30;3.13;;;6.30;99.90;;;3.61;100.00;101547.00;4959521;28;53651;-59
2021/04/14 07:29:34;;;;;;;6.73;2.80;;;6.70;99.90;;;3.22;100.00;101546.47;4970347;28;58768;-59
2021/04/14 07:36:27;;;;;;;8.33;2.70;;;7.20;99.90;;;2.96;100.00;101549.66;4959531;28;60950;-58
2021/04/14 07:39:45;;;;;;;7.80;3.03;;;7.40;99.90;;;3.00;100.00;101541.47;4943391;28;55287;-60
2021/04/14 07:43:04;;;;;;;11.57;3.70;;;7.50;99.90;;;3.47;100.00;101540.75;4953275;28;59889;-58
2021/04/14 07:46:15;;;;;;;8.97;3.50;;;7.50;99.90;;;3.25;100.00;101544.53;4956982;28;60820;-60
2021/04/14 07:49:29;;;;;;;8.47;3.20;;;7.50;99.90;;;3.30;100.00;101548.72;4957264;28;59562;-58
2021/04/14 07:52:42;;;;;;;6.37;2.97;;;7.50;99.90;;;3.51;100.00;101543.16;4943389;28;57806;-60
2021/04/14 07:56:10;;;;;;;8.57;3.10;;;7.60;99.90;;;3.44;100.00;101536.50;4953745;28;61644;-60
2021/04/14 07:59:43;;;;;;;9.73;3.53;;;7.60;99.90;;;4.04;100.00;101530.56;4936502;28;58131;-59
2021/04/14 08:02:57;;;;;;;8.67;2.77;;;7.60;99.90;;;4.55;100.00;101530.22;4940126;28;55558;-60
2021/04/14 08:06:16;;;;;;;8.13;3.13;;;7.80;99.90;;;4.69;100.00;101530.28;4951124;28;65726;-61
2021/04/14 08:09:37;;;;;;;6.93;3.13;;;8.00;99.70;;;4.48;100.00;101528.00;4957185;28;59872;-61
2021/04/14 08:13:09;;;;;;;12.90;3.03;;;8.30;98.90;;;4.49;100.00;101527.06;4964038;28;56413;-60
2021/04/14 08:16:38;;;;;;;8.87;3.03;;;8.40;97.90;;;4.98;100.00;101527.66;4969083;28;43225;-60
2021/04/14 08:23:35;;;;;;;9.10;3.23;;;8.80;94.60;;;4.97;100.00;101529.47;4966081;28;54767;-60
2021/04/14 08:27:01;;;;;;;8.27;2.93;;;8.80;94.30;;;4.99;100.00;101524.94;4964755;28;47230;-61
2021/04/14 08:30:22;;;;;;;11.97;3.20;;;9.00;94.10;;;4.58;100.00;101523.88;4962595;28;49556;-61
2021/04/14 08:33:38;;;;;;;12.70;3.33;;;9.10;92.30;;;5.17;100.00;101528.28;4961508;28;53574;-60
2021/04/14 08:37:03;;;;;;;7.40;2.80;;;9.10;91.50;;;5.75;100.00;101517.53;4966670;28;51922;-59
2021/04/14 08:40:18;;;;;;;10.03;2.70;;;9.20;91.70;;;5.20;100.00;101522.75;4949914;28;50391;-61
2021/04/14 08:43:42;;;;;;;11.70;2.53;;;9.50;90.70;;;5.18;100.00;101529.13;4965311;28;47065;-58
2021/04/14 08:46:56;;;;;;;8.50;3.27;;;9.60;87.00;;;5.83;100.00;101521.50;4964283;28;47892;-60
2021/04/14 08:50:10;;;;;;;9.77;2.37;;;9.70;87.70;;;6.33;100.00;101519.09;4965602;28;47632;-61
2021/04/14 08:53:28;;;;;;;8.27;2.67;;;9.90;85.70;;;6.03;100.00;101524.63;4964128;28;48996;-60
2021/04/14 08:56:40;;;;;;;6.10;2.20;;;10.30;82.50;;;6.04;100.00;101518.38;4961953;28;51813;-61
2021/04/14 08:59:52;;;;;;;6.23;2.33;;;10.70;78.80;;;5.87;100.00;101525.66;4966999;28;47613;-59
2021/04/14 09:03:07;;;;;;;7.83;2.73;;;10.90;75.20;;;6.55;100.00;101520.38;4967336;28;46531;-61
2021/04/14 09:06:19;;;;;;;9.07;2.43;;;11.10;74.60;;;5.73;100.00;101516.78;4959713;28;52295;-61
2021/04/14 09:09:38;;;;;;;6.73;1.90;;;11.30;72.30;;;5.47;100.00;101519.34;4944595;28;50358;-61
2021/04/14 09:13:06;;;;;;;8.93;2.20;;;11.10;69.20;;;5.35;100.00;101518.31;4954185;28;54764;-61
2021/04/14 09:16:37;;;;;;;7.50;2.20;;;10.90;69.90;;;6.38;100.00;101509.03;4963447;28;56359;-61
2021/04/14 09:19:56;;;;;;;10.00;2.53;;;10.90;70.30;;;6.64;100.00;101511.75;4958673;28;55038;-61
2021/04/14 09:23:21;;;;;;;9.07;2.67;;;11.10;69.00;;;7.29;100.00;101506.41;4959354;28;54995;-61
2021/04/14 09:26:46;;;;;;;7.77;2.43;;;11.40;69.10;;;6.99;100.00;101504.03;4952410;28;53140;-60
2021/04/14 09:30:08;;;;;;;6.93;2.13;;;11.80;66.50;;;6.63;100.00;101507.41;4961803;28;50262;-61
2021/04/14 09:33:47;;;;;;;7.97;2.47;;;12.10;62.30;;;6.79;100.00;101508.06;4960615;28;52757;-61
2021/04/14 09:37:33;;;;;;;10.37;2.33;;;12.30;61.60;;;7.11;100.00;101495.19;4957546;28;52557;-61
2021/04/14 09:41:02;;;;;;;8.23;2.60;;;12.40;60.70;;;6.63;100.00;101497.63;4960710;28;48566;-61
2021/04/14 09:44:21;;;;;;;5.27;2.13;;;12.60;59.30;;;6.05;100.00;101500.63;4953494;28;55588;-61
2021/04/14 09:47:38;;;;;;;7.13;2.30;;;12.50;58.00;;;6.27;100.00;101502.72;4963968;28;49680;-60
2021/04/14 09:51:07;;;;;;;4.43;1.97;;;12.20;57.10;;;6.82;100.00;101491.88;4980133;28;48498;-61
2021/04/14 09:54:26;;;;;;;6.30;2.17;;;12.10;57.30;;;6.01;100.00;101501.75;4962747;28;47554;-59
2021/04/14 09:57:42;;;;;;;4.83;1.90;;;12.10;56.60;;;6.46;100.00;101487.25;4965176;28;47970;-60
2021/04/14 10:00:58;;;;;;;5.50;1.90;;;11.90;56.60;;;7.07;100.00;101485.72;4964437;28;50768;-60
2021/04/14 10:04:17;;;;;;;9.17;1.80;;;11.90;56.40;;;7.24;100.00;101484.56;4962322;28;51403;-61
2021/04/14 10:07:58;;;;;;;6.87;1.40;;;12.20;55.70;;;7.44;100.00;101474.19;4962345;28;46931;-60
2021/04/14 10:11:16;;;;;;;3.37;1.40;;;12.50;52.90;;;7.44;100.00;101466.19;4953692;28;59226;-61
2021/04/14 10:14:34;;;;;;;5.10;1.63;;;12.90;52.00;;;8.02;100.00;101463.81;4961462;28;50415;-60
2021/04/14 10:17:48;;;;;;;6.63;1.60;;;13.20;51.50;;;7.63;100.00;101468.41;4956835;28;52232;-60
2021/04/14 10:20:59;;;;;;;3.67;1.20;;;13.50;49.70;;;7.07;100.00;101469.75;4960523;28;49967;-62
2021/04/14 10:24:14;;;;;;;2.77;1.53;;;13.60;49.50;;;6.48;100.00;101470.25;4962839;28;49794;-61
2021/04/14 10:27:27;;;;;;;5.10;1.77;;;13.40;48.60;;;6.65;100.00;101473.56;4961995;28;48203;-60
2021/04/14 10:30:42;;;;;;;6.47;2.07;;;13.00;48.40;;;6.79;100.00;101465.50;4957611;28;57458;-61
2021/04/14 10:37:40;;;;;;;5.63;1.60;;;12.50;50.00;;;7.12;100.00;101457.84;4948159;28;53535;-61
2021/04/14 10:40:54;;;;;;;5.97;1.93;;;12.50;51.00;;;7.41;100.00;101449.63;4957738;28;52050;-61
2021/04/14 10:44:07;;;;;;;4.03;1.37;;;12.70;51.00;;;6.82;100.00;101449.31;4978719;28;54756;-62
2021/04/14 10:47:28;;;;;;;3.90;1.40;;;12.90;49.00;;;6.31;100.00;101441.25;4958977;28;50407;-61
2021/04/14 10:50:43;;;;;;;4.90;1.40;;;12.70;48.30;;;6.82;100.00;101446.66;4960523;28;49250;-60
2021/04/14 10:54:02;;;;;;;3.27;1.43;;;12.40;48.90;;;6.32;100.00;101434.13;4961987;28;48617;-61
2021/04/14 11:00:55;;;;;;;7.03;1.20;;;12.20;50.40;;;7.59;100.00;101429.63;4966237;28;50957;-61
2021/04/14 11:04:32;;;;;;;3.43;1.43;;;12.60;49.70;;;7.63;100.00;101440.91;4964718;28;50738;-62
2021/04/14 11:07:47;;;;;;;6.53;1.70;;;12.80;49.20;;;6.25;100.00;101439.03;4964310;28;46806;-61
2021/04/14 11:11:03;;;;;;;4.27;1.57;;;12.70;47.80;;;6.33;100.00;101435.84;4966761;28;52120;-60
2021/04/14 11:14:15;;;;;;;4.33;1.67;;;12.30;48.70;;;6.64;100.00;101437.28;4965603;28;47859;-61
2021/04/14 11:17:33;;;;;;;5.30;1.30;;;12.00;49.60;;;6.74;100.00;101433.03;4963207;28;53147;-61
2021/04/14 11:20:57;;;;;;;4.53;1.90;;;11.90;49.70;;;7.44;100.00;101428.91;4958247;28;58429;-61
2021/04/14 11:24:21;;;;;;;4.13;1.30;;;12.10;49.70;;;8.18;100.00;101425.22;4961272;28;47937;-59
2021/04/14 11:27:34;;;;;;;3.03;1.27;;;12.50;49.10;;;7.97;100.00;101423.31;4959772;28;54137;-62
2021/04/14 11:30:52;;;;;;;2.03;0.80;;;13.00;47.10;;;7.83;100.00;101430.50;4954810;28;60200;-62
2021/04/14 11:34:07;;;;;;;3.73;1.40;;;13.30;45.20;;;8.28;100.00;101418.22;4958216;28;56947;-61
2021/04/14 11:37:32;;;;;;;4.93;1.23;;;13.50;45.10;;;7.97;100.00;101413.50;4958481;28;52321;-62
2021/04/14 11:41:07;;;;;;;2.93;1.47;;;13.90;44.40;;;8.00;100.00;101401.75;4961178;28;56124;-60
2021/04/14 11:44:23;;;;;;;6.37;1.60;;;14.20;44.60;;;7.00;100.00;101407.28;4930783;28;55880;-61
2021/04/14 11:47:50;;;;;;;3.00;1.13;;;14.40;43.30;;;7.71;100.00;101403.91;4975470;28;59062;-62
2021/04/14 11:51:18;;;;;;;4.27;1.20;;;14.30;43.70;;;7.31;100.00;101414.78;4962796;28;51705;-61
2021/04/14 11:54:38;;;;;;;5.53;1.40;;;13.90;43.40;;;7.45;100.00;101414.66;4961038;28;55175;-60
2021/04/14 11:58:03;;;;;;;5.33;1.37;;;13.40;44.00;;;7.19;100.00;101426.31;4964126;28;52779;-61
2021/04/14 12:05:04;;;;;;;3.47;1.30;;;12.70;45.90;;;7.06;100.00;101423.66;4957924;28;52743;-61
2021/04/14 12:12:05;;;;;;;1.93;1.10;;;12.20;46.70;;;6.63;100.00;101412.50;4942605;28;50331;-61
2021/04/14 12:15:28;;;;;;;5.67;1.67;;;12.00;46.90;;;6.92;100.00;101420.28;4953145;28;61483;-61
2021/04/14 12:18:40;;;;;;;7.93;1.50;;;11.80;47.40;;;7.11;100.00;101412.69;4960570;28;55814;-61
2021/04/14 12:21:51;;;;;;;7.57;1.70;;;11.70;47.10;;;7.79;100.00;101407.69;4960145;28;50793;-62
2021/04/14 12:25:09;;;;;;;3.93;1.53;;;11.80;47.80;;;8.21;100.00;101401.00;4963989;28;49682;-61
2021/04/14 12:28:20;;;;;;;5.17;1.23;;;12.30;47.20;;;8.24;100.00;101397.25;4962687;28;47919;-61
2021/04/14 12:31:32;;;;;;;5.07;1.60;;;12.80;46.00;;;8.12;100.00;101400.84;4956411;28;51357;-62
2021/04/14 12:34:44;;;;;;;6.43;2.07;;;13.20;45.60;;;8.06;100.00;101396.81;4960764;28;56856;-61
2021/04/14 12:37:55;;;;;;;2.93;1.33;;;13.40;44.90;;;7.96;100.00;101395.81;4964652;28;48640;-60
2021/04/14 12:41:07;;;;;;;4.97;1.63;;;13.50;44.60;;;8.29;100.00;101389.72;4964451;28;49020;-62
2021/04/14 12:44:20;;;;;;;6.07;1.67;;;13.60;44.00;;;7.90;100.00;101382.94;4963171;28;59319;-59
2021/04/14 12:47:33;;;;;;;3.47;1.63;;;13.70;42.60;;;7.37;100.00;101384.22;4961976;28;53796;-61
2021/04/14 12:50:44;;;;;;;4.20;1.87;;;13.70;42.30;;;7.99;100.00;101390.25;4943118;28;49012;-61
2021/04/14 12:53:59;;;;;;;6.07;1.40;;;13.60;42.60;;;8.24;100.00;101391.91;4958722;28;48406;-61
2021/04/14 12:57:14;;;;;;;2.70;1.20;;;13.60;43.30;;;8.22;100.00;101391.19;4942118;28;49658;-62
2021/04/14 13:00:30;;;;;;;3.67;1.50;;;13.60;42.60;;;8.12;100.00;101392.84;4941390;28;56135;-61
2021/04/14 13:03:49;;;;;;;5.43;1.40;;;13.60;42.60;;;7.87;100.00;101386.69;4939588;28;52616;-61
2021/04/14 13:07:31;;;;;;;4.73;1.20;;;13.50;42.40;;;7.72;100.00;101379.81;4961157;28;49930;-62
2021/04/14 13:10:47;;;;;;;4.87;1.40;;;13.30;42.10;;;7.52;100.00;101377.78;4878508;28;54934;-62
2021/04/14 13:14:00;;;;;;;4.67;1.43;;;13.00;42.60;;;7.23;100.00;101374.56;4961300;28;49789;-62
2021/04/14 13:17:15;;;;;;;5.50;1.40;;;12.80;42.80;;;7.45;100.00;101377.38;4962917;28;54423;-62
2021/04/14 13:20:28;;;;;;;6.37;1.83;;;12.50;43.20;;;7.55;100.00;101373.06;4962699;28;50861;-61
2021/04/14 13:23:51;;;;;;;3.13;1.57;;;12.40;43.90;;;7.43;100.00;101373.09;4961925;28;51891;-61
2021/04/14 13:27:08;;;;;;;5.47;1.47;;;12.20;44.50;;;7.10;100.00;101374.59;4979620;28;45853;-62
2021/04/14 13:30:26;;;;;;;5.80;1.40;;;12.00;44.60;;;7.43;100.00;101365.97;4966647;28;47865;-60
2021/04/14 13:33:48;;;;;;;3.87;1.17;;;11.80;45.30;;;7.47;100.00;101366.59;4967553;28;43730;-61
2021/04/14 13:37:06;;;;;;;5.53;1.50;;;11.70;45.40;;;7.78;100.00;101366.06;4967690;28;45189;-62
2021/04/14 13:40:22;;;;;;;3.60;1.30;;;11.80;45.90;;;8.08;100.00;101357.56;4971140;28;41186;-62
2021/04/14 13:43:41;;;;;;;3.23;1.30;;;11.90;46.10;;;8.33;100.00;101351.25;4973750;28;41135;-62
2021/04/14 13:47:00;;;;;;;3.67;1.30;;;12.10;46.00;;;7.99;100.00;101352.09;4973259;28;41291;-62
2021/04/14 13:50:19;;;;;;;3.33;1.30;;;12.30;44.90;;;7.78;100.00;101343.91;4965573;28;44612;-62
2021/04/14 13:53:43;;;;;;;1.90;1.00;;;12.30;44.40;;;7.36;100.00;101345.25;4981549;28;46832;-62
2021/04/14 13:57:07;;;;;;;4.80;1.40;;;12.20;43.30;;;7.53;100.00;101343.06;4964812;28;48637;-61
2021/04/14 14:00:24;;;;;;;3.03;1.40;;;12.00;43.50;;;7.55;100.00;101338.44;4963654;28;50119;-62
2021/04/14 14:03:36;;;;;;;4.33;1.53;;;11.80;44.60;;;7.34;100.00;101332.03;4963990;28;46769;-62
2021/04/14 14:06:56;;;;;;;4.17;1.17;;;11.70;44.70;;;7.47;100.00;101332.84;4963484;28;46372;-62
2021/04/14 14:10:14;;;;;;;3.77;1.13;;;11.60;45.00;;;7.75;100.00;101328.97;4961523;28;48330;-62
2021/04/14 14:13:31;;;;;;;3.93;1.37;;;11.60;45.20;;;7.44;100.00;101327.72;4966232;28;44374;-61
2021/04/14 14:16:48;;;;;;;2.43;1.30;;;11.70;44.90;;;7.84;100.00;101328.28;4962388;28;54724;-61
2021/04/14 14:23:26;;;;;;;4.10;1.20;;;11.80;44.70;;;7.79;100.00;101321.63;4964773;28;53257;-61
2021/04/14 14:26:41;;;;;;;4.00;1.07;;;11.80;44.90;;;7.76;100.00;101319.19;4945131;28;45917;-61
2021/04/14 14:29:56;;;;;;;4.17;1.30;;;11.80;44.60;;;7.97;100.00;101322.03;4946521;28;44243;-62
2021/04/14 14:33:07;;;;;;;3.33;1.23;;;11.80;44.80;;;7.94;100.00;101313.28;4950762;28;44304;-62